Time,TemperatureF,DewpointF,PressureIn,WindDirection,WindDirectionDegrees,WindSpeedMPH,WindSpeedGustMPH,Humidity,HourlyPrecipIn,Conditions,Clouds,dailyrainin,SoftwareType,DateUTC
2013-05-26 09:04:00,57.2,56.9,28.80,South,180,8.3,8.3,99,0.00,RA,,0.13,WeatherDisplay:10.37,2013-05-26 14:04:00,
2013-05-26 09:10:00,57.7,57.5,28.80,SE,135,13.8,13.8,99,0.00,,,0.13,WeatherDisplay:10.37,2013-05-26 14:10:00,
2013-05-26 09:15:00,58.1,57.8,28.80,SE,135,10.4,10.4,99,0.00,,,0.13,WeatherDisplay:10.37,2013-05-26 14:15:00,
2013-05-26 09:20:00,58.3,57.7,28.80,SE,135,10.4,10.4,98,0.00,,,0.13,WeatherDisplay:10.37,2013-05-26 14:20:00,
2013-05-26 09:25:00,58.5,57.9,28.80,East,90,8.1,8.1,98,0.00,,,0.13,WeatherDisplay:10.37,2013-05-26 14:25:00,
2013-05-26 09:30:00,58.8,58.3,28.80,SSE,158,9.2,9.2,98,0.00,,,0.13,WeatherDisplay:10.37,2013-05-26 14:30:00,
2013-05-26 09:35:00,59.0,58.4,28.80,South,180,6.9,6.9,98,0.00,,,0.13,WeatherDisplay:10.37,2013-05-26 14:35:00,
2013-05-26 09:41:00,59.5,59.0,28.79,SE,135,10.4,10.4,98,0.00,,,0.13,WeatherDisplay:10.37,2013-05-26 14:41:00,
2013-05-26 09:46:00,60.6,60.1,28.78,South,180,10.4,10.4,98,0.00,,,0.13,WeatherDisplay:10.37,2013-05-26 14:46:00,
2013-05-26 09:51:00,61.5,60.7,28.77,South,180,11.5,11.5,97,0.00,,,0.13,WeatherDisplay:10.37,2013-05-26 14:51:00,
2013-05-26 09:56:00,62.1,60.6,28.77,SE,135,10.4,10.4,95,0.00,,,0.13,WeatherDisplay:10.37,2013-05-26 14:56:00,
2013-05-26 10:01:00,62.6,61.1,28.78,SE,135,10.4,10.4,95,0.00,,,0.13,WeatherDisplay:10.37,2013-05-26 15:01:00,
2013-05-26 10:06:00,63.9,61.8,28.78,SE,135,9.2,9.2,93,0.00,,,0.13,WeatherDisplay:10.37,2013-05-26 15:06:00,
2013-05-26 10:12:00,63.9,61.8,28.78,South,180,11.5,11.5,93,0.00,,,0.13,WeatherDisplay:10.37,2013-05-26 15:12:00,
2013-05-26 10:17:00,63.7,61.3,28.79,South,180,11.5,11.5,92,0.00,,,0.13,WeatherDisplay:10.37,2013-05-26 15:17:00,
2013-05-26 10:22:00,64.2,61.8,28.80,South,180,8.1,8.3,92,0.00,,,0.13,WeatherDisplay:10.37,2013-05-26 15:22:00,
2013-05-26 10:27:00,64.8,62.7,28.79,SSE,158,11.5,11.5,93,0.00,,,0.13,WeatherDisplay:10.37,2013-05-26 15:27:00,
2013-05-26 10:33:00,64.6,61.9,28.80,South,180,11.5,11.5,91,0.00,,,0.13,WeatherDisplay:10.37,2013-05-26 15:33:00,
2013-05-26 10:38:00,64.2,61.5,28.81,SE,135,6.9,6.9,91,0.00,,,0.13,WeatherDisplay:10.37,2013-05-26 15:38:00,
2013-05-26 10:43:00,63.9,61.5,28.82,East,90,6.9,6.9,92,0.00,,,0.13,WeatherDisplay:10.37,2013-05-26 15:43:00,
2013-05-26 10:48:00,63.9,61.5,28.84,NE,45,3.5,3.5,92,0.00,,,0.13,WeatherDisplay:10.37,2013-05-26 15:48:00,
2013-05-26 10:53:00,63.5,61.1,28.84,NE,45,5.8,6.0,92,0.00,,,0.13,WeatherDisplay:10.37,2013-05-26 15:53:00,
2013-05-26 10:59:00,63.0,60.6,28.84,NE,45,12.7,12.7,92,0.00,,,0.13,WeatherDisplay:10.37,2013-05-26 15:59:00,
2013-05-26 11:04:00,61.5,59.5,28.85,NE,45,19.6,19.6,93,0.00,,,0.13,WeatherDisplay:10.37,2013-05-26 16:04:00,
2013-05-26 11:09:00,60.4,59.0,28.82,NE,45,23.0,23.0,95,0.00,,,0.13,WeatherDisplay:10.37,2013-05-26 16:09:00,
2013-05-26 11:14:00,59.5,58.4,28.79,East,90,19.6,19.6,96,0.00,,,0.13,WeatherDisplay:10.37,2013-05-26 16:14:00,
2013-05-26 11:19:00,59.4,58.5,28.76,East,90,20.7,20.7,97,0.00,,,0.13,WeatherDisplay:10.37,2013-05-26 16:19:00,
2013-05-26 11:25:00,59.5,59.0,28.77,East,90,13.8,13.8,98,0.01,RA,,0.14,WeatherDisplay:10.37,2013-05-26 16:25:00,
2013-05-26 11:30:00,59.6,59.1,28.79,East,95,5.0,23.0,98,0.00,RA,,0.14,WeatherDisplay:10.37,2013-05-26 16:30:00,
2013-05-26 11:35:00,59.5,59.0,28.82,NW,315,10.4,10.4,98,0.01,,,0.14,WeatherDisplay:10.37,2013-05-26 16:35:00,
2013-05-26 11:40:00,59.4,58.8,28.81,NE,45,9.8,9.8,98,0.01,,,0.14,WeatherDisplay:10.37,2013-05-26 16:40:00,
2013-05-26 11:45:00,59.0,58.4,28.82,NE,45,13.8,13.8,98,0.01,,,0.14,WeatherDisplay:10.37,2013-05-26 16:45:00,
2013-05-26 11:50:00,58.6,58.1,28.83,NE,45,15.0,15.0,98,0.01,,,0.14,WeatherDisplay:10.37,2013-05-26 16:50:00,
2013-05-26 11:56:00,58.1,57.5,28.83,NE,45,15.0,15.0,98,0.01,,,0.14,WeatherDisplay:10.37,2013-05-26 16:56:00,
2013-05-26 12:01:00,58.1,57.8,28.82,NE,45,15.0,15.0,99,0.01,,,0.14,WeatherDisplay:10.37,2013-05-26 17:01:00,
2013-05-26 12:06:00,57.7,57.2,28.82,NE,45,16.1,16.1,98,0.01,,,0.14,WeatherDisplay:10.37,2013-05-26 17:06:00,
2013-05-26 12:11:00,57.6,57.3,28.82,NE,45,12.7,12.7,99,0.01,,,0.14,WeatherDisplay:10.37,2013-05-26 17:11:00,
2013-05-26 12:16:00,57.6,57.3,28.81,NE,45,17.3,17.3,99,0.01,,,0.14,WeatherDisplay:10.37,2013-05-26 17:16:00,
2013-05-26 12:21:00,57.7,57.5,28.81,East,90,12.7,12.7,99,0.01,,,0.14,WeatherDisplay:10.37,2013-05-26 17:21:00,
2013-05-26 12:27:00,57.9,57.6,28.81,East,90,13.8,13.8,99,0.00,,,0.14,WeatherDisplay:10.37,2013-05-26 17:27:00,
2013-05-26 12:32:00,57.9,57.6,28.81,NE,45,16.1,16.1,99,0.00,,,0.14,WeatherDisplay:10.37,2013-05-26 17:32:00,
2013-05-26 12:37:00,57.9,57.6,28.81,NE,45,13.8,13.8,99,0.00,,,0.14,WeatherDisplay:10.37,2013-05-26 17:37:00,
2013-05-26 12:42:00,57.9,57.6,28.81,ENE,68,19.6,19.6,99,0.00,,,0.14,WeatherDisplay:10.37,2013-05-26 17:42:00,
2013-05-26 12:48:00,57.9,57.6,28.81,East,90,16.1,16.1,99,0.00,,,0.14,WeatherDisplay:10.37,2013-05-26 17:48:00,
2013-05-26 12:53:00,57.9,57.6,28.82,NE,45,16.1,16.1,99,0.00,,,0.14,WeatherDisplay:10.37,2013-05-26 17:53:00,
2013-05-26 12:58:00,57.9,57.6,28.82,NE,45,17.3,17.3,99,0.00,,,0.14,WeatherDisplay:10.37,2013-05-26 17:58:00,
2013-05-26 13:03:00,57.7,57.2,28.82,NE,45,18.4,18.4,98,0.00,,,0.14,WeatherDisplay:10.37,2013-05-26 18:03:00,
2013-05-26 13:08:00,57.7,57.2,28.82,NE,45,13.8,13.8,98,0.00,,,0.14,WeatherDisplay:10.37,2013-05-26 18:08:00,
2013-05-26 13:14:00,57.4,56.8,28.83,NE,45,12.7,12.7,98,0.00,,,0.14,WeatherDisplay:10.37,2013-05-26 18:14:00,
2013-05-26 13:19:00,57.2,56.6,28.83,NE,45,15.0,15.0,98,0.00,,,0.14,WeatherDisplay:10.37,2013-05-26 18:19:00,
2013-05-26 13:24:00,57.0,56.5,28.83,East,90,15.0,15.0,98,0.00,,,0.14,WeatherDisplay:10.37,2013-05-26 18:24:00,
2013-05-26 13:29:00,57.2,56.6,28.83,NE,45,13.8,13.8,98,0.00,,,0.14,WeatherDisplay:10.37,2013-05-26 18:29:00,
2013-05-26 13:34:00,57.4,56.8,28.82,East,90,15.0,15.0,98,0.00,,,0.14,WeatherDisplay:10.37,2013-05-26 18:34:00,
2013-05-26 13:39:00,57.9,57.4,28.83,East,90,11.5,11.5,98,0.00,,,0.14,WeatherDisplay:10.37,2013-05-26 18:39:00,
2013-05-26 13:44:00,57.7,57.2,28.83,ENE,75,12.0,15.0,98,0.00,,,0.14,WeatherDisplay:10.37,2013-05-26 18:44:00,
2013-05-26 13:50:00,57.7,57.2,28.83,NE,45,15.0,15.0,98,0.00,,,0.14,WeatherDisplay:10.37,2013-05-26 18:50:00,
2013-05-26 13:55:00,57.7,57.2,28.84,NE,45,15.2,15.2,98,0.00,,,0.14,WeatherDisplay:10.37,2013-05-26 18:55:00,
2013-05-26 14:00:00,57.4,56.5,28.84,NE,45,18.4,18.4,97,0.00,,,0.14,WeatherDisplay:10.37,2013-05-26 19:00:00,
2013-05-26 14:05:00,57.0,56.2,28.82,East,90,19.6,19.6,97,0.00,,,0.14,WeatherDisplay:10.37,2013-05-26 19:05:00,
2013-05-26 14:11:00,56.7,55.8,28.82,East,90,21.9,21.9,97,0.00,,,0.14,WeatherDisplay:10.37,2013-05-26 19:11:00,
2013-05-26 14:16:00,57.0,56.5,28.81,East,90,18.4,18.4,98,0.00,,,0.14,WeatherDisplay:10.37,2013-05-26 19:16:00,
2013-05-26 14:21:00,57.2,56.6,28.81,East,90,15.0,15.0,98,0.00,,,0.14,WeatherDisplay:10.37,2013-05-26 19:21:00,
2013-05-26 14:26:00,57.2,56.6,28.81,East,90,15.0,15.0,98,0.00,,,0.14,WeatherDisplay:10.37,2013-05-26 19:26:00,
2013-05-26 14:30:00,58.1,57.3,28.74,NW,315,3.0,10.0,97,0.11,RA,,0.43,WeatherDisplay:10.37,2013-05-26 19:30:00,
2013-05-26 14:32:00,57.4,56.8,28.80,East,90,17.3,17.3,98,0.00,,,0.14,WeatherDisplay:10.37,2013-05-26 19:32:00,
2013-05-26 14:37:00,57.4,56.8,28.80,NE,45,13.8,13.8,98,0.00,,,0.14,WeatherDisplay:10.37,2013-05-26 19:37:00,
2013-05-26 14:42:00,57.6,57.0,28.81,NE,45,12.7,12.7,98,0.00,,,0.14,WeatherDisplay:10.37,2013-05-26 19:42:00,
2013-05-26 14:45:00,57.4,57.1,28.72,NNW,342,2.0,10.0,99,0.08,RA,,0.61,WeatherDisplay:10.37,2013-05-26 19:45:00,
2013-05-26 14:47:00,57.7,57.5,28.80,NE,45,15.0,15.0,99,0.00,,,0.14,WeatherDisplay:10.37,2013-05-26 19:47:00,
2013-05-26 14:52:00,57.9,57.6,28.80,East,90,11.5,11.5,99,0.00,,,0.14,WeatherDisplay:10.37,2013-05-26 19:52:00,
2013-05-26 14:58:00,58.3,57.7,28.79,SE,135,9.2,9.2,98,0.00,,,0.14,WeatherDisplay:10.37,2013-05-26 19:58:00,
2013-05-26 15:00:00,57.4,57.1,28.71,NNW,337,0.0,4.0,99,0.01,RA,,0.64,WeatherDisplay:10.37,2013-05-26 20:00:00,
2013-05-26 15:03:00,59.4,58.8,28.77,South,180,12.7,12.7,98,0.00,,,0.14,WeatherDisplay:10.37,2013-05-26 20:03:00,
2013-05-26 15:08:00,60.4,59.9,28.77,South,180,15.0,15.0,98,0.00,,,0.14,WeatherDisplay:10.37,2013-05-26 20:08:00,
2013-05-26 15:13:00,61.3,60.5,28.76,SE,135,13.8,13.8,97,0.00,,,0.14,WeatherDisplay:10.37,2013-05-26 20:13:00,
2013-05-26 15:15:00,57.6,57.3,28.72,NNE,15,0.0,4.0,99,0.04,RA,,0.70,WeatherDisplay:10.37,2013-05-26 20:15:00,
2013-05-26 15:18:00,61.5,60.7,28.76,SE,135,10.4,10.4,97,0.00,,,0.14,WeatherDisplay:10.37,2013-05-26 20:18:00,
2013-05-26 15:23:00,62.1,60.6,28.76,South,180,13.8,13.8,95,0.00,,,0.14,WeatherDisplay:10.37,2013-05-26 20:23:00,
2013-05-26 15:28:00,61.9,60.4,28.76,SE,135,16.1,16.1,95,0.00,,,0.14,WeatherDisplay:10.37,2013-05-26 20:28:00,
2013-05-26 15:30:00,57.7,57.5,28.72,NE,45,0.0,3.0,99,0.04,RA,,0.76,WeatherDisplay:10.37,2013-05-26 20:30:00,
2013-05-26 15:33:00,62.6,61.4,28.76,SE,135,16.1,16.1,96,0.00,,,0.14,WeatherDisplay:10.37,2013-05-26 20:33:00,
2013-05-26 15:39:00,63.1,62.0,28.75,SE,135,17.3,17.3,96,0.00,,,0.14,WeatherDisplay:10.37,2013-05-26 20:39:00,
2013-05-26 15:44:00,63.9,62.1,28.75,SE,135,20.7,20.7,94,0.00,,,0.14,WeatherDisplay:10.37,2013-05-26 20:44:00,
2013-05-26 15:45:00,57.7,57.5,28.72,WSW,241,1.0,2.0,99,0.04,RA,,0.81,WeatherDisplay:10.37,2013-05-26 20:45:00,
2013-05-26 15:49:00,65.1,63.3,28.74,South,180,17.3,17.3,94,0.00,,,0.14,WeatherDisplay:10.37,2013-05-26 20:49:00,
2013-05-26 15:54:00,65.8,63.8,28.73,SE,135,17.3,17.3,93,0.00,,,0.14,WeatherDisplay:10.37,2013-05-26 20:54:00,
2013-05-26 16:00:00,66.1,63.4,28.74,SE,139,14.0,21.0,91,0.00,,,0.14,WeatherDisplay:10.37,2013-05-26 21:00:00,
2013-05-26 16:05:00,66.6,64.2,28.74,SSE,158,19.6,19.6,92,0.00,,,0.14,WeatherDisplay:10.37,2013-05-26 21:05:00,
2013-05-26 16:10:00,67.1,64.4,28.73,SE,135,17.3,17.3,91,0.00,,,0.14,WeatherDisplay:10.37,2013-05-26 21:10:00,
2013-05-26 16:15:00,68.2,65.8,28.72,SE,135,15.0,15.0,92,0.00,,,0.14,WeatherDisplay:10.37,2013-05-26 21:15:00,
2013-05-26 16:20:00,68.5,64.8,28.72,SE,135,16.1,16.1,88,0.00,,,0.14,WeatherDisplay:10.37,2013-05-26 21:20:00,
2013-05-26 16:25:00,68.4,64.3,28.72,South,180,15.0,15.0,87,0.00,,,0.14,WeatherDisplay:10.37,2013-05-26 21:25:00,
2013-05-26 16:30:00,68.4,64.7,28.72,South,180,16.1,16.1,88,0.00,,,0.14,WeatherDisplay:10.37,2013-05-26 21:30:00,
2013-05-26 16:36:00,68.4,64.7,28.72,South,180,16.1,16.1,88,0.00,,,0.14,WeatherDisplay:10.37,2013-05-26 21:36:00,
2013-05-26 16:41:00,67.1,63.7,28.72,SE,135,17.3,17.3,89,0.00,,,0.14,WeatherDisplay:10.37,2013-05-26 21:41:00,
2013-05-26 16:45:00,57.9,57.6,28.72,NNE,26,8.0,10.0,99,0.02,RA,,0.99,WeatherDisplay:10.37,2013-05-26 21:45:00,
2013-05-26 16:46:00,66.9,63.9,28.71,ESE,112,17.3,17.3,90,0.00,,,0.14,WeatherDisplay:10.37,2013-05-26 21:46:00,
2013-05-26 16:51:00,67.1,64.4,28.71,South,180,18.4,18.4,91,0.00,,,0.14,WeatherDisplay:10.37,2013-05-26 21:51:00,
2013-05-26 16:56:00,67.6,64.9,28.71,South,180,20.7,20.7,91,0.00,,,0.14,WeatherDisplay:10.37,2013-05-26 21:56:00,
2013-05-26 17:00:00,57.9,57.6,28.69,NE,45,17.0,22.0,99,0.01,RA,,1.02,WeatherDisplay:10.37,2013-05-26 22:00:00,
2013-05-26 17:01:00,67.8,64.8,28.70,South,180,19.6,19.6,90,0.00,,,0.14,WeatherDisplay:10.37,2013-05-26 22:01:00,
2013-05-26 17:07:00,68.4,65.3,28.71,SE,135,19.6,19.6,90,0.00,,,0.14,WeatherDisplay:10.37,2013-05-26 22:07:00,
2013-05-26 17:12:00,69.1,65.7,28.70,South,180,19.6,19.6,89,0.00,,,0.14,WeatherDisplay:10.37,2013-05-26 22:12:00,
2013-05-26 17:15:00,56.1,55.8,28.60,NE,45,35.0,41.0,99,0.04,RA,,1.06,WeatherDisplay:10.37,2013-05-26 22:15:00,
2013-05-26 17:17:00,68.9,65.2,28.70,South,180,19.6,19.6,88,0.00,,,0.14,WeatherDisplay:10.37,2013-05-26 22:17:00,
2013-05-26 17:22:00,69.3,65.6,28.70,South,180,18.4,18.4,88,0.00,,,0.14,WeatherDisplay:10.37,2013-05-26 22:22:00,
2013-05-26 17:27:00,69.3,64.9,28.71,South,180,21.9,21.9,86,0.00,,,0.14,WeatherDisplay:10.37,2013-05-26 22:27:00,
2013-05-26 17:30:00,56.8,56.6,28.51,NE,45,36.0,49.0,99,0.05,RA,,1.15,WeatherDisplay:10.37,2013-05-26 22:30:00,
2013-05-26 17:32:00,69.4,65.4,28.71,SE,135,18.4,18.4,87,0.00,,,0.14,WeatherDisplay:10.37,2013-05-26 22:32:00,
2013-05-26 17:38:00,69.1,65.4,28.72,South,180,19.6,19.6,88,0.00,,,0.14,WeatherDisplay:10.37,2013-05-26 22:38:00,
2013-05-26 17:43:00,69.1,65.7,28.72,South,180,18.4,18.4,89,0.00,,,0.14,WeatherDisplay:10.37,2013-05-26 22:43:00,
2013-05-26 17:45:00,56.8,56.6,28.58,NE,34,30.0,46.0,99,0.00,CLR,,1.15,WeatherDisplay:10.37,2013-05-26 22:45:00,
2013-05-26 17:48:00,68.4,64.7,28.72,South,180,18.4,18.4,88,0.00,,,0.14,WeatherDisplay:10.37,2013-05-26 22:48:00,
2013-05-26 17:53:00,67.6,64.3,28.72,SSE,158,15.0,15.0,89,0.00,,,0.14,WeatherDisplay:10.37,2013-05-26 22:53:00,
2013-05-26 17:58:00,67.8,64.5,28.72,SE,135,12.7,12.7,89,0.00,,,0.14,WeatherDisplay:10.37,2013-05-26 22:58:00,
2013-05-26 18:00:00,57.0,56.7,28.63,NE,45,22.0,35.0,99,0.00,CLR,,1.15,WeatherDisplay:10.37,2013-05-26 23:00:00,
2013-05-26 18:04:00,67.6,64.3,28.72,SE,135,12.7,12.7,89,0.00,,,0.14,WeatherDisplay:10.37,2013-05-26 23:04:00,
2013-05-26 18:09:00,67.6,64.3,28.72,SE,135,12.7,12.7,89,0.00,,,0.14,WeatherDisplay:10.37,2013-05-26 23:09:00,
2013-05-26 18:14:00,67.8,64.8,28.72,South,180,8.1,8.1,90,0.00,,,0.14,WeatherDisplay:10.37,2013-05-26 23:14:00,
2013-05-26 18:15:00,57.0,56.7,28.67,NE,45,15.0,27.0,99,0.00,CLR,,1.15,WeatherDisplay:10.37,2013-05-26 23:15:00,
2013-05-26 18:19:00,68.0,65.0,28.72,SE,135,8.1,8.1,90,0.00,,,0.14,WeatherDisplay:10.37,2013-05-26 23:19:00,
2013-05-26 18:24:00,68.4,65.3,28.72,SE,135,5.8,5.8,90,0.00,,,0.14,WeatherDisplay:10.37,2013-05-26 23:24:00,
2013-05-26 18:29:00,68.9,65.2,28.72,East,90,5.8,5.8,88,0.00,,,0.14,WeatherDisplay:10.37,2013-05-26 23:29:00,
2013-05-26 18:30:00,57.2,56.9,28.66,ENE,67,10.0,22.0,99,0.00,CLR,,1.15,WeatherDisplay:10.37,2013-05-26 23:30:00,
2013-05-26 18:35:00,69.1,65.0,28.73,East,90,3.5,3.5,87,0.00,,,0.14,WeatherDisplay:10.37,2013-05-26 23:35:00,
2013-05-26 18:40:00,68.9,64.9,28.73,NE,45,3.5,3.5,87,0.00,,,0.14,WeatherDisplay:10.37,2013-05-26 23:40:00,
2013-05-26 18:45:00,68.7,64.4,28.73,NE,45,3.5,3.5,86,0.00,,,0.14,WeatherDisplay:10.37,2013-05-26 23:45:00,
2013-05-26 18:50:00,68.7,64.7,28.74,NE,45,4.6,4.6,87,0.00,,,0.14,WeatherDisplay:10.37,2013-05-26 23:50:00,
2013-05-26 18:55:00,68.9,65.2,28.74,North,0,1.2,1.2,88,0.00,,,0.14,WeatherDisplay:10.37,2013-05-26 23:55:00,
2013-05-26 19:00:00,58.1,57.3,28.63,NE,41,12.0,20.0,97,0.00,CLR,,1.15,WeatherDisplay:10.37,2013-05-27 00:00:00,
2013-05-26 19:01:00,68.9,64.9,28.75,NW,315,2.3,0.0,87,0.00,,,0.14,WeatherDisplay:10.37,2013-05-27 00:01:00,
2013-05-26 19:06:00,68.9,64.9,28.75,NW,315,1.2,0.0,87,0.00,,,0.14,WeatherDisplay:10.37,2013-05-27 00:06:00,
2013-05-26 19:11:00,68.7,65.0,28.75,NE,45,4.6,4.6,88,0.00,,,0.14,WeatherDisplay:10.37,2013-05-27 00:11:00,
2013-05-26 19:15:00,57.9,57.1,28.62,NE,41,9.0,15.0,97,0.00,CLR,,1.15,WeatherDisplay:10.37,2013-05-27 00:15:00,
2013-05-26 19:16:00,68.4,65.0,28.75,NE,45,8.1,8.1,89,0.00,,,0.14,WeatherDisplay:10.37,2013-05-27 00:16:00,
2013-05-26 19:21:00,68.0,64.6,28.75,NNE,22,11.5,11.5,89,0.00,,,0.14,WeatherDisplay:10.37,2013-05-27 00:21:00,
2013-05-26 19:27:00,67.3,63.9,28.75,NE,45,12.7,12.7,89,0.00,,,0.14,WeatherDisplay:10.37,2013-05-27 00:27:00,
2013-05-26 19:30:00,58.1,57.5,28.61,NE,45,8.0,12.0,98,0.00,CLR,,1.15,WeatherDisplay:10.37,2013-05-27 00:30:00,
2013-05-26 19:32:00,66.6,63.5,28.75,NE,45,16.1,16.1,90,0.00,,,0.14,WeatherDisplay:10.37,2013-05-27 00:32:00,
2013-05-26 19:37:00,65.8,63.5,28.75,NE,45,15.0,15.0,92,0.00,,,0.14,WeatherDisplay:10.37,2013-05-27 00:37:00,
2013-05-26 19:42:00,65.3,62.9,28.76,NE,45,12.7,12.7,92,0.00,,,0.14,WeatherDisplay:10.37,2013-05-27 00:42:00,
2013-05-26 19:45:00,58.8,58.0,28.59,ESE,113,3.0,10.0,97,0.00,CLR,,1.15,WeatherDisplay:10.37,2013-05-27 00:45:00,
2013-05-26 19:47:00,64.6,61.9,28.76,NE,45,17.3,17.3,91,0.00,,,0.14,WeatherDisplay:10.37,2013-05-27 00:47:00,
2013-05-26 19:53:00,63.5,61.7,28.76,NE,45,15.0,15.0,94,0.00,,,0.14,WeatherDisplay:10.37,2013-05-27 00:53:00,
2013-05-26 19:58:00,63.3,61.6,28.76,NE,45,17.3,17.3,94,0.00,,,0.14,WeatherDisplay:10.37,2013-05-27 00:58:00,
2013-05-26 20:00:00,59.2,57.7,28.57,SSE,151,3.0,5.0,95,0.00,CLR,,1.15,WeatherDisplay:10.37,2013-05-27 01:00:00,
2013-05-26 20:03:00,63.1,61.7,28.76,NE,45,15.0,15.0,95,0.00,,,0.14,WeatherDisplay:10.37,2013-05-27 01:03:00,
2013-05-26 20:08:00,62.8,61.3,28.75,NE,45,15.0,15.0,95,0.00,,,0.14,WeatherDisplay:10.37,2013-05-27 01:08:00,
2013-05-26 20:13:00,62.4,61.0,28.75,NE,45,20.7,20.7,95,0.00,,,0.14,WeatherDisplay:10.37,2013-05-27 01:13:00,
2013-05-26 20:15:00,59.4,57.6,28.56,SW,223,1.0,8.0,94,0.00,CLR,,1.15,WeatherDisplay:10.37,2013-05-27 01:15:00,
2013-05-26 20:19:00,62.4,61.0,28.75,NE,45,13.8,13.8,95,0.00,,,0.14,WeatherDisplay:10.37,2013-05-27 01:19:00,
2013-05-26 20:24:00,62.1,60.6,28.75,NE,45,18.4,18.4,95,0.00,,,0.14,WeatherDisplay:10.37,2013-05-27 01:24:00,
2013-05-26 20:29:00,62.1,60.6,28.75,NE,45,12.7,12.7,95,0.00,,,0.14,WeatherDisplay:10.37,2013-05-27 01:29:00,
2013-05-26 20:30:00,59.7,58.0,28.59,SW,225,3.0,6.0,94,0.00,CLR,,1.15,WeatherDisplay:10.37,2013-05-27 01:30:00,
2013-05-26 20:34:00,61.9,60.4,28.76,NE,45,19.6,19.6,95,0.00,,,0.14,WeatherDisplay:10.37,2013-05-27 01:34:00,
2013-05-26 20:40:00,61.0,59.5,28.75,NE,45,21.9,21.9,95,0.00,,,0.14,WeatherDisplay:10.37,2013-05-27 01:40:00,
2013-05-26 20:45:00,60.4,59.0,28.75,NE,45,17.0,22.0,95,0.00,,,0.14,WeatherDisplay:10.37,2013-05-27 01:45:00,
2013-05-26 20:50:00,59.9,58.8,28.75,NE,45,20.7,20.7,96,0.00,,,0.14,WeatherDisplay:10.37,2013-05-27 01:50:00,
2013-05-26 20:55:00,59.5,58.7,28.75,East,90,17.3,17.3,97,0.00,,,0.14,WeatherDisplay:10.37,2013-05-27 01:55:00,
2013-05-26 21:00:00,59.4,58.5,28.74,NE,45,15.0,15.0,97,0.00,,,0.14,WeatherDisplay:10.37,2013-05-27 02:00:00,
2013-05-26 21:05:00,59.2,58.3,28.74,NE,45,16.1,16.1,97,0.00,,,0.14,WeatherDisplay:10.37,2013-05-27 02:05:00,
2013-05-26 21:11:00,59.0,58.2,28.74,East,90,17.3,17.3,97,0.00,,,0.14,WeatherDisplay:10.37,2013-05-27 02:11:00,
2013-05-26 21:16:00,58.8,58.3,28.74,East,90,17.3,17.3,98,0.00,,,0.14,WeatherDisplay:10.37,2013-05-27 02:16:00,
2013-05-26 21:21:00,58.6,58.1,28.73,East,90,21.3,21.3,98,0.00,,,0.14,WeatherDisplay:10.37,2013-05-27 02:21:00,
2013-05-26 21:26:00,58.6,58.1,28.72,East,90,20.7,20.7,98,0.00,,,0.14,WeatherDisplay:10.37,2013-05-27 02:26:00,
2013-05-26 21:31:00,58.3,57.7,28.71,East,90,20.7,20.7,98,0.00,,,0.14,WeatherDisplay:10.37,2013-05-27 02:31:00,
2013-05-26 21:36:00,58.3,57.7,28.70,NE,45,20.7,20.7,98,0.00,,,0.14,WeatherDisplay:10.37,2013-05-27 02:36:00,
2013-05-26 21:42:00,58.1,57.3,28.69,East,90,27.6,27.6,97,0.01,RA,,0.15,WeatherDisplay:10.37,2013-05-27 02:42:00,
2013-05-26 21:47:00,57.9,57.1,28.69,East,90,24.2,24.2,97,0.01,RA,,0.15,WeatherDisplay:10.37,2013-05-27 02:47:00,
2013-05-26 21:52:00,57.7,56.9,28.69,East,90,26.6,26.6,97,0.01,,,0.15,WeatherDisplay:10.37,2013-05-27 02:52:00,
2013-05-26 21:57:00,57.6,56.7,28.70,East,90,26.5,26.5,97,0.01,,,0.15,WeatherDisplay:10.37,2013-05-27 02:57:00,
2013-05-26 22:02:00,57.6,56.4,28.70,East,90,24.2,24.2,96,0.01,,,0.15,WeatherDisplay:10.37,2013-05-27 03:02:00,
2013-05-26 22:07:00,57.4,56.2,28.71,East,90,23.0,23.0,96,0.01,,,0.15,WeatherDisplay:10.37,2013-05-27 03:07:00,
2013-05-26 22:13:00,57.2,56.1,28.71,East,90,20.7,20.7,96,0.01,,,0.15,WeatherDisplay:10.37,2013-05-27 03:13:00,
2013-05-26 22:18:00,57.0,55.9,28.71,East,90,18.4,18.4,96,0.01,,,0.15,WeatherDisplay:10.37,2013-05-27 03:18:00,
2013-05-26 22:23:00,57.0,55.9,28.71,NE,45,23.0,23.0,96,0.01,,,0.15,WeatherDisplay:10.37,2013-05-27 03:23:00,
2013-05-26 22:28:00,57.0,55.6,28.72,East,90,20.7,20.7,95,0.01,,,0.15,WeatherDisplay:10.37,2013-05-27 03:28:00,
2013-05-26 22:34:00,57.2,55.8,28.72,East,90,19.6,19.6,95,0.01,,,0.15,WeatherDisplay:10.37,2013-05-27 03:34:00,
2013-05-26 22:39:00,57.2,55.5,28.72,East,90,20.7,20.7,94,0.01,,,0.15,WeatherDisplay:10.37,2013-05-27 03:39:00,
2013-05-26 22:44:00,57.4,55.7,28.73,East,90,20.7,20.7,94,0.00,,,0.15,WeatherDisplay:10.37,2013-05-27 03:44:00,
2013-05-26 22:49:00,57.4,55.4,28.72,SE,135,18.4,18.4,93,0.00,,,0.15,WeatherDisplay:10.37,2013-05-27 03:49:00,
2013-05-26 22:54:00,57.4,55.1,28.72,East,90,20.7,20.7,92,0.00,,,0.15,WeatherDisplay:10.37,2013-05-27 03:54:00,
2013-05-26 22:59:00,57.4,55.1,28.71,East,90,23.0,23.0,92,0.00,,,0.15,WeatherDisplay:10.37,2013-05-27 03:59:00,
2013-05-26 23:01:00,57.4,55.1,28.71,East,90,23.0,23.0,92,0.00,,,0.15,WeatherDisplay:10.37,2013-05-27 04:01:00,
2013-05-26 23:03:00,57.4,55.1,28.71,East,90,23.0,23.0,92,0.00,,,0.15,WeatherDisplay:10.37,2013-05-27 04:03:00,
2013-05-26 23:08:00,57.6,55.3,28.70,ESE,112,23.0,23.0,92,0.00,,,0.15,WeatherDisplay:10.37,2013-05-27 04:08:00,
2013-05-26 23:13:00,57.9,55.6,28.69,East,90,25.3,25.3,92,0.00,,,0.15,WeatherDisplay:10.37,2013-05-27 04:13:00,
2013-05-26 23:18:00,58.3,56.3,28.68,SE,135,21.9,21.9,93,0.00,,,0.15,WeatherDisplay:10.37,2013-05-27 04:18:00,
2013-05-26 23:23:00,58.5,56.1,28.68,SE,135,20.7,20.7,92,0.00,,,0.15,WeatherDisplay:10.37,2013-05-27 04:23:00,
2013-05-26 23:29:00,58.5,56.1,28.69,SE,135,15.0,15.0,92,0.00,,,0.15,WeatherDisplay:10.37,2013-05-27 04:29:00,
2013-05-26 23:34:00,58.6,56.3,28.68,East,90,21.9,21.9,92,0.00,,,0.15,WeatherDisplay:10.37,2013-05-27 04:34:00,
2013-05-26 23:39:00,58.6,56.0,28.67,East,90,24.2,24.2,91,0.00,,,0.15,WeatherDisplay:10.37,2013-05-27 04:39:00,
2013-05-26 23:44:00,58.5,56.1,28.66,East,90,29.9,29.9,92,0.00,,,0.20,WeatherDisplay:10.37,2013-05-27 04:44:00,
2013-05-26 23:49:00,58.6,56.3,28.66,SE,135,29.9,29.9,92,0.09,RA,,0.25,WeatherDisplay:10.37,2013-05-27 04:49:00,
2013-05-26 23:55:00,58.8,56.8,28.67,South,180,17.3,17.3,93,0.09,RA,,0.25,WeatherDisplay:10.37,2013-05-27 04:55:00,